Skip to main content

NOAA/GLERL Met Station at Chicago, IL

Previous 5 days (top of hour only)
See also Previous 3 Hours (2 minute increments)
Jump down to Data
Switch to [English][Metric]
Zoom: Click and drag, Pan: shift-click and drag, Unzoom: double-click, Unzoom All




Note: Speed = mean wind during 2-minute period at top of hour,
Gust = max wind during 2-minute period at top of hour,
Peak = max wind during entire hour.
• See also 5-day windrose plot


NOAA/GLERL Met Station at Chicago, IL

Previous 5 days (top of hour only)
See also Previous 3 Hours (2 minute increments)
Jump up to Graphs
Switch to [English][Metric]
                  Wind  Wind  Wind   Air   Dew   Rel
                   Spd   Gst   Dir  Temp    Pt   Hum
YYYY-MM-DD   CDT   kts   kts   deg     F     F     %
2021-08-03 00:00 -99.0 -99.0   -99   0.0   0.0   0.0
2021-08-02 10:00   8.2  11.7   168  70.9  53.4  53.5
2021-08-02 09:00   8.2   9.7   181  69.8  54.3  57.4
2021-08-02 08:00   9.5  10.3   186  68.9  55.2  61.2
2021-08-02 07:00   9.3  10.1   189  68.5  60.1  74.0
2021-08-02 06:00   7.6  10.5   158  68.7  58.5  69.6
2021-08-02 05:00   6.2   7.4   105  69.1  58.7  69.2
2021-08-02 04:00   8.9   9.7    81  69.6  59.3  69.2
2021-08-02 03:00   9.9  11.3    62  70.0  60.2  70.6
2021-08-02 02:00  11.3  13.0    46  70.0  61.2  73.4
2021-08-02 01:00  11.9  13.4    22  69.4  60.6  73.2
2021-08-02 00:00  14.2  17.5    12  69.1  59.1  70.2
2021-08-01 23:00  16.9  19.1    13  68.5  58.7  70.4
2021-08-01 22:00  19.1  20.6     6  68.7  56.1  63.7
2021-08-01 21:00  17.1  19.2     3  68.9  59.4  71.4
2021-08-01 20:00  20.0  21.2    13  68.9  58.2  68.4
2021-08-01 19:00  17.3  18.7    17  69.3  58.8  69.0
2021-08-01 18:00  16.1  17.9     8  69.4  57.4  65.2
2021-08-01 17:00  17.1  19.4    18  69.3  57.4  65.4
2021-08-01 16:00  17.3  18.7    22  68.7  56.8  65.3
2021-08-01 15:00  18.3  20.4    34  68.4  57.4  67.5
2021-08-01 14:00  16.3  18.7    24  68.0  57.5  68.6
2021-08-01 13:00  17.1  19.1     9  68.0  58.6  71.6
2021-08-01 12:00  18.9  21.0     4  67.6  60.0  76.2
2021-08-01 11:00  18.1  19.8   352  68.5  59.4  72.2
2021-08-01 10:00  17.5  19.2   353  69.1  61.8  77.4
2021-08-01 09:00  15.4  17.3     6  69.8  61.5  74.6
2021-08-01 08:00  17.9  19.4     1  70.2  60.2  70.3
2021-08-01 07:00  16.3  17.5     8  70.0  64.7  83.1
2021-08-01 06:00  16.3  17.5   356  70.5  65.0  82.5
2021-08-01 05:00  14.2  18.5   357  70.3  65.6  84.7
2021-08-01 04:00  18.5  19.2   352  71.2  64.0  77.6
2021-08-01 03:00  13.8  15.4   312  72.1  64.5  76.6
2021-08-01 02:00  11.9  14.0   292  73.0  64.0  72.9
2021-08-01 01:00  12.4  13.8   288  73.4  63.6  71.1
2021-08-01 00:00  14.2  15.4   280  74.1  63.6  69.2
2021-07-31 23:00  15.0  18.3   272  74.8  63.4  67.0
2021-07-31 22:00  14.4  15.9   281  75.4  62.9  64.6
2021-07-31 21:00  14.8  15.7   276  76.3  62.5  61.9
2021-07-31 20:00  13.0  15.0   275  77.4  61.3  57.2
2021-07-31 19:00   6.2   7.2   133  74.5  63.8  69.0
2021-07-31 18:00   6.8   7.8   145  75.2  62.7  64.7
2021-07-31 17:00   9.5   9.9   130  74.3  60.5  61.5
2021-07-31 16:00  10.1  10.9   121  73.6  60.1  62.2
2021-07-31 15:00   9.7  10.5   126  72.9  59.6  62.6
2021-07-31 14:00   9.3   9.9   115  72.0  59.6  64.6
2021-07-31 13:00   8.0   8.6   102  71.4  57.9  61.9
2021-07-31 12:00   6.6   7.0   115  71.2  57.6  61.6
2021-07-31 11:00   4.1   4.7    89  70.9  58.3  64.1
2021-07-31 10:00   1.7   1.9    93  71.8  56.9  59.0
2021-07-31 08:00   3.9   4.1   279  67.8  58.0  70.3
2021-07-31 07:00   3.1   3.5   310  68.2  56.2  65.1
2021-07-31 06:00   3.3   3.9    13  67.8  56.8  67.5
2021-07-31 05:00   4.3   4.9   359  67.6  57.9  70.6
2021-07-31 04:00   1.2   2.1     5  67.8  54.8  62.6
2021-07-31 03:00   5.2   6.0    26  68.0  55.0  62.8
2021-07-31 02:00   4.9   5.8    18  68.2  55.2  62.8
2021-07-31 01:00   4.5   4.9     3  68.0  55.8  64.6
2021-07-31 00:00   8.7   9.7    20  67.6  55.8  65.3
2021-07-30 23:00   8.9   9.7    14  67.5  56.3  67.0
2021-07-30 22:00  11.7  12.8    25  67.3  56.3  67.5
2021-07-30 21:00   9.5  10.5     9  66.9  56.0  67.5
2021-07-30 20:00   8.6   9.7    11  66.7  55.9  67.8
2021-07-30 19:00   9.7  10.9    11  66.7  56.4  69.0
2021-07-30 18:00   8.7  10.3     7  66.6  56.0  68.5
2021-07-30 17:00  11.1  11.7     3  66.7  54.0  63.1
2021-07-30 16:00  10.7  12.1    20  66.6  55.3  66.8
2021-07-30 15:00  11.7  13.2    17  66.6  55.2  66.5
2021-07-30 14:00  13.4  15.4    12  66.7  55.2  65.9
2021-07-30 13:00  15.4  16.9     6  66.7  53.6  62.2
2021-07-30 12:00  13.8  15.7     4  66.9  56.3  68.4
2021-07-30 11:00  13.4  16.3     6  66.9  56.1  67.9
2021-07-30 10:00  15.4  17.9    20  67.3  55.8  66.1
2021-07-30 09:00  19.4  21.8    24  66.9  55.7  66.8
2021-07-30 08:00  20.4  22.2    22  66.9  56.4  68.5
2021-07-30 07:00  20.4  22.0     9  67.1  55.7  66.3
2021-07-30 06:00  20.4  22.6    12  67.6  57.6  69.9
2021-07-30 05:00  18.3  19.8    12  68.5  57.0  66.2
2021-07-30 04:00  22.9  25.5    15  70.0  56.8  62.5
2021-07-30 03:00  22.2  24.7    21  70.9  59.6  67.1
2021-07-30 02:00  22.9  24.1    16  70.7  64.1  79.2
2021-07-30 01:00  14.8  17.1     7  71.8  65.5  80.2
2021-07-30 00:00  15.6  17.1    14  73.0  63.2  70.8
2021-07-29 23:00  15.7  17.7    13  73.0  63.6  71.8
2021-07-29 22:00  17.9  21.8     5  72.0  65.5  79.8
2021-07-29 21:00  22.4  23.7     3  71.8  65.4  80.1
2021-07-29 20:00  24.9  25.9    14  72.7  65.3  77.2
2021-07-29 19:00  17.5  19.8    14  73.4  68.4  84.2
2021-07-29 18:00  15.7  17.1    14  73.8  68.4  83.1
2021-07-29 17:00  13.2  14.8    21  74.3  69.4  84.3
2021-07-29 16:00   5.6   6.4    29  74.7  69.8  84.5
2021-07-29 15:00  10.3  11.3    33  75.6  70.3  83.5
2021-07-29 14:00   2.7   3.9   133  79.2  71.6  77.2
2021-07-29 13:00   7.8   8.9    94  76.1  70.0  81.1
2021-07-29 12:00  12.2  13.2    87  74.7  70.6  87.1
2021-07-29 11:00  11.1  13.2    84  77.7  70.5  78.1
2021-07-29 10:00  15.2  17.9   304  84.2  69.4  60.6
2021-07-29 09:00  22.4  26.2   270  80.8  70.1  69.5
2021-07-29 08:00  20.8  22.6   275  78.4  66.3  65.8
2021-07-29 07:00  25.7  28.4   261  80.2  63.0  55.2
2021-07-29 06:00  30.3  41.6   236  83.1  60.1  45.2
2021-07-29 05:00  27.6  34.8   234  82.8  59.5  44.7
2021-07-29 04:00  22.2  26.2   217  77.2  64.4  64.3
2021-07-29 03:00  15.7  16.5   265  81.9  77.3  85.8
2021-07-29 02:00  15.6  17.9   255  82.4  77.2  84.1
2021-07-29 01:00  10.7  12.8   259  82.8  76.9  82.2
2021-07-29 00:00  12.6  14.8   205  81.5  75.3  81.1
2021-07-28 23:00  10.3  11.9   194  82.8  75.7  78.9
2021-07-28 22:00  11.9  12.2   210  83.7  75.7  76.5
2021-07-28 21:00  10.1  11.3   259  84.6  75.1  72.8
2021-07-28 20:00  13.0  14.2   227  85.3  73.7  67.7
2021-07-28 19:00  11.1  12.4   203  87.6  72.1  59.5